sensor_id;sensor_type;location;lat;lon;timestamp;pressure;altitude;pressure_sealevel;temperature;humidity
14800;BME280;7491;57.750;11.970;2022-11-15T00:01:07;76304.31;;;-142.11;100.00
14800;BME280;7491;57.750;11.970;2022-11-15T00:03:34;76296.16;;;-142.11;100.00
14800;BME280;7491;57.750;11.970;2022-11-15T00:06:02;76318.59;;;-142.11;100.00
14800;BME280;7491;57.750;11.970;2022-11-15T00:08:29;76308.41;;;-142.11;100.00
14800;BME280;7491;57.750;11.970;2022-11-15T00:10:56;76302.28;;;-142.11;100.00
14800;BME280;7491;57.750;11.970;2022-11-15T00:13:24;76312.47;;;-142.11;100.00
14800;BME280;7491;57.750;11.970;2022-11-15T00:15:52;76304.31;;;-142.11;100.00
14800;BME280;7491;57.750;11.970;2022-11-15T00:18:20;76306.38;;;-142.11;100.00
14800;BME280;7491;57.750;11.970;2022-11-15T00:20:46;76288.03;;;-142.11;100.00
14800;BME280;7491;57.750;11.970;2022-11-15T00:23:13;76294.13;;;-142.11;100.00
14800;BME280;7491;57.750;11.970;2022-11-15T00:25:40;76288.03;;;-142.11;100.00
14800;BME280;7491;57.750;11.970;2022-11-15T00:28:06;76302.28;;;-142.11;100.00
14800;BME280;7491;57.750;11.970;2022-11-15T00:30:33;76298.22;;;-142.11;100.00
14800;BME280;7491;57.750;11.970;2022-11-15T00:33:01;76298.22;;;-142.11;100.00
14800;BME280;7491;57.750;11.970;2022-11-15T00:35:31;76265.59;;;-142.11;100.00
14800;BME280;7491;57.750;11.970;2022-11-15T00:37:58;76261.50;;;-142.11;100.00
14800;BME280;7491;57.750;11.970;2022-11-15T00:40:25;76267.63;;;-142.11;100.00
14800;BME280;7491;57.750;11.970;2022-11-15T00:42:52;76271.72;;;-142.11;100.00
14800;BME280;7491;57.750;11.970;2022-11-15T00:45:19;76281.91;;;-142.11;100.00
14800;BME280;7491;57.750;11.970;2022-11-15T00:47:45;76281.91;;;-142.11;100.00
14800;BME280;7491;57.750;11.970;2022-11-15T00:50:13;76290.06;;;-142.11;100.00
14800;BME280;7491;57.750;11.970;2022-11-15T00:52:41;76283.94;;;-142.11;100.00
14800;BME280;7491;57.750;11.970;2022-11-15T00:55:08;76279.88;;;-142.11;100.00
14800;BME280;7491;57.750;11.970;2022-11-15T00:57:39;76269.66;;;-142.11;100.00
14800;BME280;7491;57.750;11.970;2022-11-15T01:00:06;76279.88;;;-142.11;100.00
14800;BME280;7491;57.750;11.970;2022-11-15T01:02:34;76273.75;;;-142.11;100.00
14800;BME280;7491;57.750;11.970;2022-11-15T01:05:00;76273.75;;;-142.11;100.00
14800;BME280;7491;57.750;11.970;2022-11-15T01:07:27;76283.94;;;-142.11;100.00
14800;BME280;7491;57.750;11.970;2022-11-15T01:09:55;76279.88;;;-142.11;100.00
14800;BME280;7491;57.750;11.970;2022-11-15T01:12:22;76290.06;;;-142.11;100.00
14800;BME280;7491;57.750;11.970;2022-11-15T01:14:49;76281.91;;;-142.11;100.00
14800;BME280;7491;57.750;11.970;2022-11-15T01:17:16;76294.13;;;-142.11;100.00
14800;BME280;7491;57.750;11.970;2022-11-15T01:19:43;76281.91;;;-142.11;100.00
14800;BME280;7491;57.750;11.970;2022-11-15T01:22:09;76271.72;;;-142.11;100.00
14800;BME280;7491;57.750;11.970;2022-11-15T01:24:36;76267.63;;;-142.11;100.00
14800;BME280;7491;57.750;11.970;2022-11-15T01:27:04;76257.44;;;-142.11;100.00
14800;BME280;7491;57.750;11.970;2022-11-15T01:29:31;76261.50;;;-142.11;100.00
14800;BME280;7491;57.750;11.970;2022-11-15T01:31:57;76265.59;;;-142.11;100.00
14800;BME280;7491;57.750;11.970;2022-11-15T01:34:24;76257.44;;;-142.11;100.00
14800;BME280;7491;57.750;11.970;2022-11-15T01:36:51;76257.44;;;-142.11;100.00
14800;BME280;7491;57.750;11.970;2022-11-15T01:39:18;76257.44;;;-142.11;100.00
14800;BME280;7491;57.750;11.970;2022-11-15T01:41:44;76249.28;;;-142.11;100.00
14800;BME280;7491;57.750;11.970;2022-11-15T01:44:41;76249.28;;;-142.11;100.00
14800;BME280;7491;57.750;11.970;2022-11-15T01:47:12;76232.97;;;-142.11;100.00
14800;BME280;7491;57.750;11.970;2022-11-15T01:49:45;76247.25;;;-142.11;100.00
14800;BME280;7491;57.750;11.970;2022-11-15T01:52:17;76253.38;;;-142.11;100.00
14800;BME280;7491;57.750;11.970;2022-11-15T01:54:45;76253.38;;;-142.11;100.00
14800;BME280;7491;57.750;11.970;2022-11-15T01:57:13;76237.06;;;-142.11;100.00
14800;BME280;7491;57.750;11.970;2022-11-15T01:59:43;76239.09;;;-142.11;100.00
14800;BME280;7491;57.750;11.970;2022-11-15T02:02:10;76241.13;;;-142.11;100.00
14800;BME280;7491;57.750;11.970;2022-11-15T02:04:40;76237.06;;;-142.11;100.00
14800;BME280;7491;57.750;11.970;2022-11-15T02:07:09;76239.09;;;-142.11;100.00
14800;BME280;7491;57.750;11.970;2022-11-15T02:09:38;76224.81;;;-142.11;100.00
14800;BME280;7491;57.750;11.970;2022-11-15T02:12:06;76224.81;;;-142.11;100.00
14800;BME280;7491;57.750;11.970;2022-11-15T02:14:34;76232.97;;;-142.11;100.00
14800;BME280;7491;57.750;11.970;2022-11-15T02:17:15;76239.09;;;-142.11;100.00
14800;BME280;7491;57.750;11.970;2022-11-15T02:20:06;76243.16;;;-142.11;100.00
14800;BME280;7491;57.750;11.970;2022-11-15T02:22:47;76243.16;;;-142.11;100.00
14800;BME280;7491;57.750;11.970;2022-11-15T02:25:36;76241.13;;;-142.11;100.00
14800;BME280;7491;57.750;11.970;2022-11-15T02:28:18;76241.13;;;-142.11;100.00
14800;BME280;7491;57.750;11.970;2022-11-15T02:30:53;76235.00;;;-142.11;100.00
14800;BME280;7491;57.750;11.970;2022-11-15T02:33:29;76224.81;;;-142.11;100.00
14800;BME280;7491;57.750;11.970;2022-11-15T02:36:00;76220.75;;;-142.11;100.00
14800;BME280;7491;57.750;11.970;2022-11-15T02:38:32;76228.91;;;-142.11;100.00
14800;BME280;7491;57.750;11.970;2022-11-15T02:41:07;76218.72;;;-142.11;100.00
14800;BME280;7491;57.750;11.970;2022-11-15T02:43:39;76216.66;;;-142.11;100.00
14800;BME280;7491;57.750;11.970;2022-11-15T02:46:32;76222.78;;;-142.11;100.00
14800;BME280;7491;57.750;11.970;2022-11-15T02:49:17;76220.75;;;-142.11;100.00
14800;BME280;7491;57.750;11.970;2022-11-15T02:51:46;76218.72;;;-142.11;100.00
14800;BME280;7491;57.750;11.970;2022-11-15T02:54:19;76232.97;;;-142.11;100.00
14800;BME280;7491;57.750;11.970;2022-11-15T02:56:47;76218.72;;;-142.11;100.00
14800;BME280;7491;57.750;11.970;2022-11-15T02:59:28;76216.66;;;-142.11;100.00
14800;BME280;7491;57.750;11.970;2022-11-15T03:02:13;76216.66;;;-142.11;100.00
14800;BME280;7491;57.750;11.970;2022-11-15T03:04:44;76228.91;;;-142.11;100.00
14800;BME280;7491;57.750;11.970;2022-11-15T03:07:19;76226.84;;;-142.11;100.00
14800;BME280;7491;57.750;11.970;2022-11-15T03:09:52;76228.91;;;-142.11;100.00
14800;BME280;7491;57.750;11.970;2022-11-15T03:12:25;76239.09;;;-142.11;100.00
14800;BME280;7491;57.750;11.970;2022-11-15T03:14:56;76237.06;;;-142.11;100.00
14800;BME280;7491;57.750;11.970;2022-11-15T03:17:29;76232.97;;;-142.11;100.00
14800;BME280;7491;57.750;11.970;2022-11-15T03:19:59;76214.63;;;-142.11;100.00
14800;BME280;7491;57.750;11.970;2022-11-15T03:22:29;76232.97;;;-142.11;100.00
14800;BME280;7491;57.750;11.970;2022-11-15T03:24:59;76237.06;;;-142.11;100.00
14800;BME280;7491;57.750;11.970;2022-11-15T03:27:30;76235.00;;;-142.11;100.00
14800;BME280;7491;57.750;11.970;2022-11-15T03:30:01;76247.25;;;-142.11;100.00
14800;BME280;7491;57.750;11.970;2022-11-15T03:32:34;76243.16;;;-142.11;100.00
14800;BME280;7491;57.750;11.970;2022-11-15T03:35:05;76257.44;;;-142.11;100.00
14800;BME280;7491;57.750;11.970;2022-11-15T03:37:36;76239.09;;;-142.11;100.00
14800;BME280;7491;57.750;11.970;2022-11-15T03:40:04;76247.25;;;-142.11;100.00
14800;BME280;7491;57.750;11.970;2022-11-15T03:42:34;76249.28;;;-142.11;100.00
14800;BME280;7491;57.750;11.970;2022-11-15T03:45:13;76251.31;;;-142.11;100.00
14800;BME280;7491;57.750;11.970;2022-11-15T03:47:46;76247.25;;;-142.11;100.00
14800;BME280;7491;57.750;11.970;2022-11-15T03:50:18;76251.31;;;-142.11;100.00
14800;BME280;7491;57.750;11.970;2022-11-15T03:52:46;76253.38;;;-142.11;100.00
14800;BME280;7491;57.750;11.970;2022-11-15T03:55:16;76263.56;;;-142.11;100.00
14800;BME280;7491;57.750;11.970;2022-11-15T03:57:47;76273.75;;;-142.11;100.00
14800;BME280;7491;57.750;11.970;2022-11-15T04:00:15;76267.63;;;-142.11;100.00
14800;BME280;7491;57.750;11.970;2022-11-15T04:03:02;76267.63;;;-142.11;100.00
14800;BME280;7491;57.750;11.970;2022-11-15T04:05:33;76269.66;;;-142.11;100.00
14800;BME280;7491;57.750;11.970;2022-11-15T04:08:00;76267.63;;;-142.11;100.00
14800;BME280;7491;57.750;11.970;2022-11-15T04:10:27;76271.72;;;-142.11;100.00
14800;BME280;7491;57.750;11.970;2022-11-15T06:10:22;76255.41;;;-142.11;100.00
14800;BME280;7491;57.750;11.970;2022-11-15T06:19:23;76241.13;;;-142.11;100.00
14800;BME280;7491;57.750;11.970;2022-11-15T06:39:10;76243.16;;;-142.11;100.00
14800;BME280;7491;57.750;11.970;2022-11-15T08:04:29;76273.75;;;-142.11;100.00
14800;BME280;7491;57.750;11.970;2022-11-15T08:06:57;76275.78;;;-142.11;100.00
14800;BME280;7491;57.750;11.970;2022-11-15T08:09:24;76275.78;;;-142.11;100.00
14800;BME280;7491;57.750;11.970;2022-11-15T08:11:51;76271.72;;;-142.11;100.00
14800;BME280;7491;57.750;11.970;2022-11-15T08:14:18;76275.78;;;-142.11;100.00
14800;BME280;7491;57.750;11.970;2022-11-15T08:16:46;76271.72;;;-142.11;100.00
14800;BME280;7491;57.750;11.970;2022-11-15T08:19:13;76261.50;;;-142.11;100.00
14800;BME280;7491;57.750;11.970;2022-11-15T08:21:41;76283.94;;;-142.11;100.00
14800;BME280;7491;57.750;11.970;2022-11-15T08:24:09;76281.91;;;-142.11;100.00
14800;BME280;7491;57.750;11.970;2022-11-15T08:26:36;76275.78;;;-142.11;100.00
14800;BME280;7491;57.750;11.970;2022-11-15T08:29:03;76279.88;;;-142.11;100.00
14800;BME280;7491;57.750;11.970;2022-11-15T08:31:29;76279.88;;;-142.11;100.00
14800;BME280;7491;57.750;11.970;2022-11-15T08:33:56;76296.16;;;-142.11;100.00
14800;BME280;7491;57.750;11.970;2022-11-15T08:36:23;76290.06;;;-142.11;100.00
14800;BME280;7491;57.750;11.970;2022-11-15T08:38:51;76281.91;;;-142.11;100.00
14800;BME280;7491;57.750;11.970;2022-11-15T08:41:24;76290.06;;;-142.11;100.00
14800;BME280;7491;57.750;11.970;2022-11-15T08:43:54;76279.88;;;-142.11;100.00
14800;BME280;7491;57.750;11.970;2022-11-15T08:46:21;76277.81;;;-142.11;100.00
14800;BME280;7491;57.750;11.970;2022-11-15T08:48:48;76281.91;;;-142.11;100.00
14800;BME280;7491;57.750;11.970;2022-11-15T08:51:15;76281.91;;;-142.11;100.00
14800;BME280;7491;57.750;11.970;2022-11-15T08:53:42;76279.88;;;-142.11;100.00
14800;BME280;7491;57.750;11.970;2022-11-15T08:56:11;76281.91;;;-142.11;100.00
14800;BME280;7491;57.750;11.970;2022-11-15T08:58:39;76271.72;;;-142.11;100.00
14800;BME280;7491;57.750;11.970;2022-11-15T09:01:15;76273.75;;;-142.11;100.00
14800;BME280;7491;57.750;11.970;2022-11-15T09:03:42;76281.91;;;-142.11;100.00
14800;BME280;7491;57.750;11.970;2022-11-15T09:06:08;76277.81;;;-142.11;100.00
14800;BME280;7491;57.750;11.970;2022-11-15T09:08:35;76259.47;;;-142.11;100.00
14800;BME280;7491;57.750;11.970;2022-11-15T09:11:03;76259.47;;;-142.11;100.00
14800;BME280;7491;57.750;11.970;2022-11-15T09:13:31;76261.50;;;-142.11;100.00
14800;BME280;7491;57.750;11.970;2022-11-15T09:15:58;76265.59;;;-142.11;100.00
14800;BME280;7491;57.750;11.970;2022-11-15T09:18:25;76267.63;;;-142.11;100.00
14800;BME280;7491;57.750;11.970;2022-11-15T09:20:55;76263.56;;;-142.11;100.00
14800;BME280;7491;57.750;11.970;2022-11-15T09:23:23;76259.47;;;-142.11;100.00
14800;BME280;7491;57.750;11.970;2022-11-15T09:25:50;76255.41;;;-142.11;100.00
14800;BME280;7491;57.750;11.970;2022-11-15T09:28:17;76239.09;;;-142.11;100.00
14800;BME280;7491;57.750;11.970;2022-11-15T09:30:45;76257.44;;;-142.11;100.00
14800;BME280;7491;57.750;11.970;2022-11-15T09:33:12;76249.28;;;-142.11;100.00
14800;BME280;7491;57.750;11.970;2022-11-15T09:35:39;76237.06;;;-142.11;100.00
14800;BME280;7491;57.750;11.970;2022-11-15T09:38:06;76247.25;;;-142.11;100.00
14800;BME280;7491;57.750;11.970;2022-11-15T09:40:36;76255.41;;;-142.11;100.00
14800;BME280;7491;57.750;11.970;2022-11-15T09:43:21;76255.41;;;-142.11;100.00
14800;BME280;7491;57.750;11.970;2022-11-15T09:45:58;76265.59;;;-142.11;100.00
14800;BME280;7491;57.750;11.970;2022-11-15T09:48:41;76241.13;;;-142.11;100.00
14800;BME280;7491;57.750;11.970;2022-11-15T09:51:18;76253.38;;;-142.11;100.00
14800;BME280;7491;57.750;11.970;2022-11-15T09:53:52;76241.13;;;-142.11;100.00
14800;BME280;7491;57.750;11.970;2022-11-15T09:56:23;76232.97;;;-142.11;100.00
14800;BME280;7491;57.750;11.970;2022-11-15T09:59:01;76235.00;;;-142.11;100.00
14800;BME280;7491;57.750;11.970;2022-11-15T10:01:48;76239.09;;;-142.11;100.00
14800;BME280;7491;57.750;11.970;2022-11-15T10:04:20;76245.22;;;-142.11;100.00
14800;BME280;7491;57.750;11.970;2022-11-15T10:06:53;76237.06;;;-142.11;100.00
14800;BME280;7491;57.750;11.970;2022-11-15T10:09:25;76228.91;;;-142.11;100.00
14800;BME280;7491;57.750;11.970;2022-11-15T10:11:54;76237.06;;;-142.11;100.00
14800;BME280;7491;57.750;11.970;2022-11-15T10:14:24;76218.72;;;-142.11;100.00
14800;BME280;7491;57.750;11.970;2022-11-15T10:17:12;76218.72;;;-142.11;100.00
14800;BME280;7491;57.750;11.970;2022-11-15T10:19:48;76216.66;;;-142.11;100.00
14800;BME280;7491;57.750;11.970;2022-11-15T10:22:35;76210.56;;;-142.11;100.00
14800;BME280;7491;57.750;11.970;2022-11-15T10:25:16;76216.66;;;-142.11;100.00
14800;BME280;7491;57.750;11.970;2022-11-15T10:27:45;76216.66;;;-142.11;100.00
14800;BME280;7491;57.750;11.970;2022-11-15T10:30:16;76212.59;;;-142.11;100.00
14800;BME280;7491;57.750;11.970;2022-11-15T10:32:46;76220.75;;;-142.11;100.00
14800;BME280;7491;57.750;11.970;2022-11-15T10:35:18;76218.72;;;-142.11;100.00
14800;BME280;7491;57.750;11.970;2022-11-15T10:37:45;76210.56;;;-142.11;100.00
14800;BME280;7491;57.750;11.970;2022-11-15T10:40:19;76210.56;;;-142.11;100.00
14800;BME280;7491;57.750;11.970;2022-11-15T10:42:46;76214.63;;;-142.11;100.00
14800;BME280;7491;57.750;11.970;2022-11-15T10:45:28;76204.44;;;-142.11;100.00
14800;BME280;7491;57.750;11.970;2022-11-15T10:48:20;76206.47;;;-142.11;100.00
14800;BME280;7491;57.750;11.970;2022-11-15T10:50:49;76206.47;;;-142.11;100.00
14800;BME280;7491;57.750;11.970;2022-11-15T10:53:21;76202.41;;;-142.11;100.00
14800;BME280;7491;57.750;11.970;2022-11-15T10:55:51;76188.13;;;-142.11;100.00
14800;BME280;7491;57.750;11.970;2022-11-15T10:58:22;76196.28;;;-142.11;100.00
14800;BME280;7491;57.750;11.970;2022-11-15T11:00:54;76200.34;;;-142.11;100.00
14800;BME280;7491;57.750;11.970;2022-11-15T11:03:28;76200.34;;;-142.11;100.00
14800;BME280;7491;57.750;11.970;2022-11-15T11:06:07;76196.28;;;-142.11;100.00
14800;BME280;7491;57.750;11.970;2022-11-15T11:08:34;76194.25;;;-142.11;100.00
14800;BME280;7491;57.750;11.970;2022-11-15T11:11:03;76194.25;;;-142.11;100.00
14800;BME280;7491;57.750;11.970;2022-11-15T11:13:32;76179.97;;;-142.11;100.00
14800;BME280;7491;57.750;11.970;2022-11-15T11:16:15;76177.94;;;-142.11;100.00
14800;BME280;7491;57.750;11.970;2022-11-15T11:18:51;76188.13;;;-142.11;100.00
14800;BME280;7491;57.750;11.970;2022-11-15T11:21:26;76179.97;;;-142.11;100.00
14800;BME280;7491;57.750;11.970;2022-11-15T11:24:01;76171.81;;;-142.11;100.00
14800;BME280;7491;57.750;11.970;2022-11-15T11:26:38;76169.78;;;-142.11;100.00
14800;BME280;7491;57.750;11.970;2022-11-15T11:29:16;76169.78;;;-142.11;100.00
14800;BME280;7491;57.750;11.970;2022-11-15T11:31:51;76165.72;;;-142.11;100.00
14800;BME280;7491;57.750;11.970;2022-11-15T11:34:33;76155.50;;;-142.11;100.00
14800;BME280;7491;57.750;11.970;2022-11-15T11:37:07;76169.78;;;-142.11;100.00
14800;BME280;7491;57.750;11.970;2022-11-15T11:39:49;76155.50;;;-142.11;100.00
14800;BME280;7491;57.750;11.970;2022-11-15T11:42:30;76157.56;;;-142.11;100.00
14800;BME280;7491;57.750;11.970;2022-11-15T11:45:10;76165.72;;;-142.11;100.00
14800;BME280;7491;57.750;11.970;2022-11-15T11:47:46;76159.59;;;-142.11;100.00
14800;BME280;7491;57.750;11.970;2022-11-15T11:50:17;76149.41;;;-142.11;100.00
14800;BME280;7491;57.750;11.970;2022-11-15T11:52:57;76167.75;;;-142.11;100.00
14800;BME280;7491;57.750;11.970;2022-11-15T11:55:28;76169.78;;;-142.11;100.00
14800;BME280;7491;57.750;11.970;2022-11-15T11:58:04;76147.34;;;-142.11;100.00
14800;BME280;7491;57.750;11.970;2022-11-15T12:00:35;76159.59;;;-142.11;100.00
14800;BME280;7491;57.750;11.970;2022-11-15T12:03:09;76149.41;;;-142.11;100.00
14800;BME280;7491;57.750;11.970;2022-11-15T12:05:40;76149.41;;;-142.11;100.00
14800;BME280;7491;57.750;11.970;2022-11-15T12:08:22;76149.41;;;-142.11;100.00
14800;BME280;7491;57.750;11.970;2022-11-15T12:10:54;76157.56;;;-142.11;100.00
14800;BME280;7491;57.750;11.970;2022-11-15T12:13:26;76149.41;;;-142.11;100.00
14800;BME280;7491;57.750;11.970;2022-11-15T12:16:03;76149.41;;;-142.11;100.00
14800;BME280;7491;57.750;11.970;2022-11-15T12:18:32;76159.59;;;-142.11;100.00
14800;BME280;7491;57.750;11.970;2022-11-15T12:21:03;76167.75;;;-142.11;100.00
14800;BME280;7491;57.750;11.970;2022-11-15T12:23:37;76169.78;;;-142.11;100.00
14800;BME280;7491;57.750;11.970;2022-11-15T12:26:08;76163.66;;;-142.11;100.00
14800;BME280;7491;57.750;11.970;2022-11-15T12:28:41;76165.72;;;-142.11;100.00
14800;BME280;7491;57.750;11.970;2022-11-15T12:31:13;76171.81;;;-142.11;100.00
14800;BME280;7491;57.750;11.970;2022-11-15T12:33:44;76169.78;;;-142.11;100.00
14800;BME280;7491;57.750;11.970;2022-11-15T12:36:37;76169.78;;;-142.11;100.00
14800;BME280;7491;57.750;11.970;2022-11-15T12:39:05;76165.72;;;-142.11;100.00
14800;BME280;7491;57.750;11.970;2022-11-15T12:41:33;76163.66;;;-142.11;100.00
14800;BME280;7491;57.750;11.970;2022-11-15T12:44:01;76184.06;;;-142.11;100.00
14800;BME280;7491;57.750;11.970;2022-11-15T12:47:01;76192.22;;;-142.11;100.00
14800;BME280;7491;57.750;11.970;2022-11-15T12:49:46;76194.25;;;-142.11;100.00
14800;BME280;7491;57.750;11.970;2022-11-15T12:52:14;76194.25;;;-142.11;100.00
14800;BME280;7491;57.750;11.970;2022-11-15T12:54:59;76202.41;;;-142.11;100.00
14800;BME280;7491;57.750;11.970;2022-11-15T12:57:38;76224.81;;;-142.11;100.00
14800;BME280;7491;57.750;11.970;2022-11-15T13:03:26;76226.84;;;-142.11;100.00
14800;BME280;7491;57.750;11.970;2022-11-15T13:06:09;76214.63;;;-142.11;100.00
14800;BME280;7491;57.750;11.970;2022-11-15T13:08:52;76218.72;;;-142.11;100.00
14800;BME280;7491;57.750;11.970;2022-11-15T13:11:52;76224.81;;;-142.11;100.00
14800;BME280;7491;57.750;11.970;2022-11-15T13:14:48;76218.72;;;-142.11;100.00
14800;BME280;7491;57.750;11.970;2022-11-15T13:17:32;76224.81;;;-142.11;100.00
14800;BME280;7491;57.750;11.970;2022-11-15T13:22:45;76235.00;;;-142.11;100.00
14800;BME280;7491;57.750;11.970;2022-11-15T13:25:32;76243.16;;;-142.11;100.00
14800;BME280;7491;57.750;11.970;2022-11-15T13:28:11;76247.25;;;-142.11;100.00
14800;BME280;7491;57.750;11.970;2022-11-15T13:30:49;76259.47;;;-142.11;100.00
14800;BME280;7491;57.750;11.970;2022-11-15T13:33:19;76261.50;;;-142.11;100.00
14800;BME280;7491;57.750;11.970;2022-11-15T13:35:47;76253.38;;;-142.11;100.00
14800;BME280;7491;57.750;11.970;2022-11-15T13:38:19;76245.22;;;-142.11;100.00
14800;BME280;7491;57.750;11.970;2022-11-15T13:40:52;76237.06;;;-142.11;100.00
14800;BME280;7491;57.750;11.970;2022-11-15T13:43:27;76222.78;;;-142.11;100.00
14800;BME280;7491;57.750;11.970;2022-11-15T13:46:11;76222.78;;;-142.11;100.00
14800;BME280;7491;57.750;11.970;2022-11-15T13:48:38;76226.84;;;-142.11;100.00
14800;BME280;7491;57.750;11.970;2022-11-15T13:51:12;76241.13;;;-142.11;100.00
14800;BME280;7491;57.750;11.970;2022-11-15T13:53:43;76239.09;;;-142.11;100.00
14800;BME280;7491;57.750;11.970;2022-11-15T13:56:15;76243.16;;;-142.11;100.00
14800;BME280;7491;57.750;11.970;2022-11-15T13:58:43;76255.41;;;-142.11;100.00
14800;BME280;7491;57.750;11.970;2022-11-15T14:01:15;76259.47;;;-142.11;100.00
14800;BME280;7491;57.750;11.970;2022-11-15T14:03:49;76269.66;;;-142.11;100.00
14800;BME280;7491;57.750;11.970;2022-11-15T14:06:19;76257.44;;;-142.11;100.00
14800;BME280;7491;57.750;11.970;2022-11-15T14:11:51;76263.56;;;-142.11;100.00
14800;BME280;7491;57.750;11.970;2022-11-15T14:14:20;76273.75;;;-142.11;100.00
14800;BME280;7491;57.750;11.970;2022-11-15T14:16:49;76285.97;;;-142.11;100.00
14800;BME280;7491;57.750;11.970;2022-11-15T14:19:34;76302.28;;;-142.11;100.00
14800;BME280;7491;57.750;11.970;2022-11-15T14:22:22;76326.75;;;-142.11;100.00
14800;BME280;7491;57.750;11.970;2022-11-15T14:25:13;76324.72;;;-142.11;100.00
14800;BME280;7491;57.750;11.970;2022-11-15T14:28:07;76328.78;;;-142.11;100.00
14800;BME280;7491;57.750;11.970;2022-11-15T14:30:31;76336.94;;;-142.11;100.00
14800;BME280;7491;57.750;11.970;2022-11-15T14:40:22;76355.28;;;-142.11;100.00
14800;BME280;7491;57.750;11.970;2022-11-15T14:50:15;76357.34;;;-142.11;100.00
14800;BME280;7491;57.750;11.970;2022-11-15T14:53:56;76371.59;;;-142.11;100.00
14800;BME280;7491;57.750;11.970;2022-11-15T14:57:05;76377.72;;;-142.11;100.00
14800;BME280;7491;57.750;11.970;2022-11-15T14:59:49;76375.69;;;-142.11;100.00
14800;BME280;7491;57.750;11.970;2022-11-15T15:02:32;76373.63;;;-142.11;100.00
14800;BME280;7491;57.750;11.970;2022-11-15T15:05:20;76359.38;;;-142.11;100.00
14800;BME280;7491;57.750;11.970;2022-11-15T15:14:37;76349.19;;;-142.11;100.00
14800;BME280;7491;57.750;11.970;2022-11-15T15:17:16;76341.03;;;-142.11;100.00
14800;BME280;7491;57.750;11.970;2022-11-15T15:20:01;76353.25;;;-142.11;100.00
14800;BME280;7491;57.750;11.970;2022-11-15T15:26:20;76349.19;;;-142.11;100.00
14800;BME280;7491;57.750;11.970;2022-11-15T15:29:18;76353.25;;;-142.11;100.00
14800;BME280;7491;57.750;11.970;2022-11-15T15:31:53;76349.19;;;-142.11;100.00
14800;BME280;7491;57.750;11.970;2022-11-15T15:40:43;76359.38;;;-142.11;100.00
14800;BME280;7491;57.750;11.970;2022-11-15T15:43:13;76387.91;;;-142.11;100.00
14800;BME280;7491;57.750;11.970;2022-11-15T15:46:14;76383.84;;;-142.11;100.00
14800;BME280;7491;57.750;11.970;2022-11-15T15:48:50;76383.84;;;-142.11;100.00
14800;BME280;7491;57.750;11.970;2022-11-15T15:51:26;76383.84;;;-142.11;100.00
14800;BME280;7491;57.750;11.970;2022-11-15T15:54:10;76379.75;;;-142.11;100.00
14800;BME280;7491;57.750;11.970;2022-11-15T15:56:37;76381.78;;;-142.11;100.00
14800;BME280;7491;57.750;11.970;2022-11-15T15:59:12;76369.56;;;-142.11;100.00
14800;BME280;7491;57.750;11.970;2022-11-15T16:01:40;76371.59;;;-142.11;100.00
14800;BME280;7491;57.750;11.970;2022-11-15T16:04:14;76347.13;;;-142.11;100.00
14800;BME280;7491;57.750;11.970;2022-11-15T16:06:41;76355.28;;;-142.11;100.00
14800;BME280;7491;57.750;11.970;2022-11-15T16:09:29;76351.22;;;-142.11;100.00
14800;BME280;7491;57.750;11.970;2022-11-15T16:15:49;76345.09;;;-142.11;100.00
14800;BME280;7491;57.750;11.970;2022-11-15T16:18:26;76349.19;;;-142.11;100.00
14800;BME280;7491;57.750;11.970;2022-11-15T16:24:02;76345.09;;;-142.11;100.00
14800;BME280;7491;57.750;11.970;2022-11-15T16:26:33;76365.47;;;-142.11;100.00
14800;BME280;7491;57.750;11.970;2022-11-15T16:29:04;76353.25;;;-142.11;100.00
14800;BME280;7491;57.750;11.970;2022-11-15T16:31:48;76365.47;;;-142.11;100.00
14800;BME280;7491;57.750;11.970;2022-11-15T16:34:15;76383.84;;;-142.11;100.00
14800;BME280;7491;57.750;11.970;2022-11-15T16:36:45;76375.69;;;-142.11;100.00
14800;BME280;7491;57.750;11.970;2022-11-15T16:39:12;76369.56;;;-142.11;100.00
14800;BME280;7491;57.750;11.970;2022-11-15T16:41:53;76381.78;;;-142.11;100.00
14800;BME280;7491;57.750;11.970;2022-11-15T16:44:28;76375.69;;;-142.11;100.00
14800;BME280;7491;57.750;11.970;2022-11-15T16:47:09;76385.88;;;-142.11;100.00
14800;BME280;7491;57.750;11.970;2022-11-15T16:49:49;76387.91;;;-142.11;100.00
14800;BME280;7491;57.750;11.970;2022-11-15T16:52:15;76400.16;;;-142.11;100.00
14800;BME280;7491;57.750;11.970;2022-11-15T16:54:42;76389.94;;;-142.11;100.00
14800;BME280;7491;57.750;11.970;2022-11-15T16:57:09;76396.06;;;-142.11;100.00
14800;BME280;7491;57.750;11.970;2022-11-15T16:59:42;76398.09;;;-142.11;100.00
14800;BME280;7491;57.750;11.970;2022-11-15T17:02:14;76396.06;;;-142.11;100.00
14800;BME280;7491;57.750;11.970;2022-11-15T17:04:41;76404.22;;;-142.11;100.00
14800;BME280;7491;57.750;11.970;2022-11-15T17:07:17;76402.19;;;-142.11;100.00
14800;BME280;7491;57.750;11.970;2022-11-15T17:09:50;76408.28;;;-142.11;100.00
14800;BME280;7491;57.750;11.970;2022-11-15T17:12:40;76414.41;;;-142.11;100.00
14800;BME280;7491;57.750;11.970;2022-11-15T17:15:18;76420.53;;;-142.11;100.00
14800;BME280;7491;57.750;11.970;2022-11-15T17:17:54;76416.44;;;-142.11;100.00
14800;BME280;7491;57.750;11.970;2022-11-15T17:20:29;76414.41;;;-142.11;100.00
14800;BME280;7491;57.750;11.970;2022-11-15T17:23:13;76412.38;;;-142.11;100.00
14800;BME280;7491;57.750;11.970;2022-11-15T17:25:58;76418.50;;;-142.11;100.00
14800;BME280;7491;57.750;11.970;2022-11-15T17:28:25;76434.78;;;-142.11;100.00
14800;BME280;7491;57.750;11.970;2022-11-15T17:30:51;76426.66;;;-142.11;100.00
14800;BME280;7491;57.750;11.970;2022-11-15T17:33:20;76442.94;;;-142.11;100.00